Time;durP1;ratioP1;P1;durP2;ratioP2;P2;SDS_P1;SDS_P2;PMS_P1;PMS_P2;Temp;Humidity;BMP_temperature;BMP_pressure;BME280_temperature;BME280_humidity;BME280_pressure;Samples;Min_cycle;Max_cycle;Signal;HPM_P1;HPM_P2
2023/03/22 00:00:11;;;;;;;3.40;1.60;;;;;;;-145.69;100.00;52414.69;5116448;28;20206;-80
2023/03/22 00:02:38;;;;;;;6.07;2.33;;;;;;;-145.69;100.00;52406.75;5116176;28;20204;-79
2023/03/22 00:05:05;;;;;;;2.03;1.50;;;;;;;-145.69;100.00;52408.75;5115602;28;20229;-80
2023/03/22 00:07:33;;;;;;;3.47;1.70;;;;;;;-145.69;100.00;52440.44;5115586;28;20250;-81
2023/03/22 00:10:00;;;;;;;3.87;1.43;;;;;;;-145.69;100.00;52388.94;5115939;28;20240;-80
2023/03/22 00:12:26;;;;;;;8.43;2.13;;;;;;;-145.69;100.00;52418.63;5110234;28;20198;-80
2023/03/22 00:14:53;;;;;;;6.53;1.60;;;;;;;-145.69;100.00;52408.75;5107733;28;20205;-80
2023/03/22 00:17:21;;;;;;;3.87;1.97;;;;;;;-145.69;100.00;52408.75;5115854;28;20203;-80
2023/03/22 00:19:48;;;;;;;2.10;1.47;;;;;;;-145.69;100.00;52418.63;5115761;28;20610;-80
2023/03/22 00:22:15;;;;;;;3.57;1.23;;;;;;;-145.69;100.00;52381.00;5115637;28;20651;-81
2023/03/22 00:24:43;;;;;;;3.20;1.30;;;;;;;-145.69;100.00;52420.63;5115511;28;20228;-80
2023/03/22 00:27:09;;;;;;;4.20;1.30;;;;;;;-145.69;100.00;52420.63;5095484;28;20194;-80
2023/03/22 00:29:36;;;;;;;4.97;1.80;;;;;;;-145.69;100.00;52432.50;5094987;28;20205;-79
2023/03/22 00:32:03;;;;;;;2.80;1.63;;;;;;;-145.69;100.00;52412.69;5109398;28;20551;-80
2023/03/22 00:34:31;;;;;;;5.63;1.40;;;;;;;-145.69;100.00;52404.78;5115813;28;20304;-80
2023/03/22 00:36:57;;;;;;;5.43;1.50;;;;;;;-145.69;100.00;52456.28;5115206;28;20197;-80
2023/03/22 00:39:24;;;;;;;2.70;1.30;;;;;;;-145.69;100.00;52448.34;5115172;28;20216;-81
2023/03/22 00:41:52;;;;;;;2.33;1.33;;;;;;;-145.69;100.00;52418.63;5115016;28;20667;-80
2023/03/22 00:44:18;;;;;;;5.23;1.60;;;;;;;-145.69;100.00;52400.81;5114941;28;20293;-80
2023/03/22 00:46:45;;;;;;;3.20;1.50;;;;;;;-145.69;100.00;52424.59;5115364;28;20224;-80
2023/03/22 00:49:11;;;;;;;3.50;1.13;;;;;;;-145.69;100.00;52432.50;5115047;28;20194;-80
2023/03/22 00:51:38;;;;;;;4.60;1.53;;;;;;;-145.69;100.00;52456.28;5115194;28;20664;-81
2023/03/22 00:54:04;;;;;;;2.30;1.30;;;;;;;-145.69;100.00;52428.53;5114955;28;20659;-81
2023/03/22 00:56:32;;;;;;;3.83;1.43;;;;;;;-145.69;100.00;52444.38;5114943;28;20197;-81
2023/03/22 00:59:00;;;;;;;1.73;1.23;;;;;;;-145.69;100.00;52452.31;5115098;28;20252;-81
2023/03/22 01:01:27;;;;;;;1.77;1.40;;;;;;;-145.69;100.00;52452.31;5114480;28;20198;-81
2023/03/22 01:03:53;;;;;;;1.53;1.30;;;;;;;-145.69;100.00;52444.38;5114935;28;20217;-81
2023/03/22 01:06:20;;;;;;;3.33;1.75;;;;;;;-145.69;100.00;52408.75;5113956;28;20792;-81
2023/03/22 01:08:49;;;;;;;2.73;1.60;;;;;;;-145.69;100.00;52418.63;5114780;28;20201;-81
2023/03/22 01:11:17;;;;;;;2.30;1.40;;;;;;;-145.69;100.00;52448.34;5114645;28;20295;-79
2023/03/22 01:13:44;;;;;;;2.60;1.33;;;;;;;-145.69;100.00;52450.31;5114354;28;20186;-81
2023/03/22 01:16:12;;;;;;;2.23;1.30;;;;;;;-145.69;100.00;52428.53;5114809;28;20624;-80
2023/03/22 01:18:39;;;;;;;1.37;1.27;;;;;;;-145.69;100.00;52480.03;5114869;28;20564;-80
2023/03/22 01:21:06;;;;;;;4.03;1.27;;;;;;;-145.69;100.00;52444.38;5114696;28;20205;-80
2023/03/22 01:23:33;;;;;;;6.87;2.23;;;;;;;-145.69;100.00;52428.53;5113893;28;20250;-81
2023/03/22 01:26:00;;;;;;;2.00;1.30;;;;;;;-145.69;100.00;52448.34;5114374;28;20586;-80
2023/03/22 01:28:27;;;;;;;2.17;1.43;;;;;;;-145.69;100.00;52412.69;5114475;28;20559;-81
2023/03/22 01:30:53;;;;;;;3.90;1.37;;;;;;;-145.69;100.00;52446.38;5114381;28;20197;-81
2023/03/22 01:33:21;;;;;;;2.13;1.50;;;;;;;-145.69;100.00;52448.34;5114295;28;20201;-80
2023/03/22 01:35:48;;;;;;;3.43;1.67;;;;;;;-145.69;100.00;52442.41;5114246;28;20197;-80
2023/03/22 01:38:14;;;;;;;3.40;1.60;;;;;;;-145.69;100.00;52422.59;5114452;28;20202;-80
2023/03/22 01:40:41;;;;;;;6.03;1.60;;;;;;;-145.69;100.00;52440.44;5114020;28;20232;-80
2023/03/22 01:43:13;;;;;;;3.33;1.40;;;;;;;-145.69;100.00;52424.59;5113236;28;20248;-80
2023/03/22 01:45:42;;;;;;;3.28;1.90;;;;;;;-145.69;100.00;52436.47;5113159;28;20458;-80
2023/03/22 01:48:15;;;;;;;5.50;2.00;;;;;;;-145.69;100.00;52456.28;5113954;28;20197;-80
2023/03/22 01:50:47;;;;;;;2.37;1.50;;;;;;;-145.69;100.00;52444.38;5113778;28;20190;-80
2023/03/22 01:53:17;;;;;;;8.93;1.70;;;;;;;-145.69;100.00;52484.00;5113330;28;20233;-80
2023/03/22 01:55:46;;;;;;;2.37;1.40;;;;;;;-145.69;100.00;52448.34;5114452;28;20208;-80
2023/03/22 01:58:16;;;;;;;6.20;1.70;;;;;;;-145.69;100.00;52468.16;5113680;28;20225;-80
2023/03/22 02:00:43;;;;;;;4.33;1.93;;;;;;;-145.69;100.00;52464.19;5113433;28;20694;-80
2023/03/22 02:03:13;;;;;;;2.77;1.53;;;;;;;-145.69;100.00;52452.31;5113427;28;20647;-79
2023/03/22 02:05:40;;;;;;;6.63;1.80;;;;;;;-145.69;100.00;52456.28;5104589;28;20254;-79
2023/03/22 02:08:09;;;;;;;2.93;2.00;;;;;;;-145.69;100.00;52460.22;5100857;28;20193;-79
2023/03/22 02:10:36;;;;;;;3.50;1.63;;;;;;;-145.69;100.00;52438.44;5113757;28;20202;-80
2023/03/22 02:13:19;;;;;;;7.07;1.90;;;;;;;-145.69;100.00;52466.16;5113202;28;20560;-81
2023/03/22 02:15:54;;;;;;;5.63;1.93;;;;;;;-145.69;100.00;52444.38;5113521;28;20687;-80
2023/03/22 02:18:32;;;;;;;3.47;1.73;;;;;;;-145.69;100.00;52430.53;5111821;28;20196;-80
2023/03/22 02:21:21;;;;;;;3.40;1.53;;;;;;;-145.69;100.00;52452.31;5113512;28;20204;-80
2023/03/22 02:24:13;;;;;;;7.07;2.10;;;;;;;-145.69;100.00;52458.25;5113335;28;20190;-80
2023/03/22 02:27:05;;;;;;;4.83;1.70;;;;;;;-145.69;100.00;52454.28;5113722;28;20193;-79
2023/03/22 02:29:40;;;;;;;2.13;1.80;;;;;;;-145.69;100.00;52410.72;5102084;28;20185;-79
2023/03/22 02:32:39;;;;;;;2.37;1.60;;;;;;;-145.69;100.00;52480.03;5113389;28;20663;-80
2023/03/22 02:35:22;;;;;;;2.87;1.47;;;;;;;-145.69;100.00;52426.56;5092486;28;20202;-79
2023/03/22 02:38:17;;;;;;;3.63;2.00;;;;;;;-145.69;100.00;52456.28;5093022;28;20201;-80
2023/03/22 02:40:52;;;;;;;3.57;1.87;;;;;;;-145.69;100.00;52482.00;5106584;28;20607;-80
2023/03/22 02:43:32;;;;;;;6.07;2.03;;;;;;;-145.69;100.00;52456.28;5112847;28;20228;-80
2023/03/22 02:46:05;;;;;;;3.13;1.80;;;;;;;-145.69;100.00;52456.28;5111997;28;20458;-79
2023/03/22 02:48:37;;;;;;;6.63;1.90;;;;;;;-145.69;100.00;52460.22;5113117;28;20196;-80
2023/03/22 02:51:09;;;;;;;5.13;1.50;;;;;;;-145.69;100.00;52468.16;5113587;28;20193;-80
2023/03/22 02:53:42;;;;;;;2.53;1.40;;;;;;;-145.69;100.00;52456.28;5112711;28;20193;-80
2023/03/22 02:56:14;;;;;;;3.37;1.60;;;;;;;-145.69;100.00;52456.28;5113161;28;20201;-80
2023/03/22 02:58:45;;;;;;;6.47;1.77;;;;;;;-145.69;100.00;52444.38;5112905;28;20199;-80
2023/03/22 03:01:19;;;;;;;4.07;1.83;;;;;;;-145.69;100.00;52440.44;5113345;28;20716;-80
2023/03/22 03:03:49;;;;;;;2.60;1.50;;;;;;;-145.69;100.00;52434.47;5115217;28;20201;-80
2023/03/22 03:06:19;;;;;;;9.37;1.60;;;;;;;-145.69;100.00;52442.41;5116982;28;20221;-80
2023/03/22 03:08:50;;;;;;;5.77;1.93;;;;;;;-145.69;100.00;52454.28;5117538;28;20207;-79
2023/03/22 03:11:19;;;;;;;2.17;1.50;;;;;;;-145.69;100.00;52489.94;5116960;28;20708;-80
2023/03/22 03:13:47;;;;;;;4.60;1.57;;;;;;;-145.69;100.00;52452.31;5116917;28;20197;-79
2023/03/22 03:16:16;;;;;;;3.50;1.53;;;;;;;-145.69;100.00;52466.16;5117019;28;20253;-79
2023/03/22 03:18:50;;;;;;;1.90;1.70;;;;;;;-145.69;100.00;52458.25;5116865;28;20186;-79
2023/03/22 03:21:29;;;;;;;3.00;1.53;;;;;;;-145.69;100.00;52484.00;5116879;28;20205;-80
2023/03/22 03:24:06;;;;;;;4.80;1.70;;;;;;;-145.69;100.00;52487.97;5116317;28;20932;-80
2023/03/22 03:26:43;;;;;;;2.13;1.50;;;;;;;-145.69;100.00;52470.13;5116725;28;20233;-80
2023/03/22 03:29:14;;;;;;;3.23;1.63;;;;;;;-145.69;100.00;52491.91;5116655;28;20185;-80
2023/03/22 03:31:46;;;;;;;6.90;1.80;;;;;;;-145.69;100.00;52476.06;5116672;28;20212;-80
2023/03/22 03:34:18;;;;;;;2.83;1.70;;;;;;;-145.69;100.00;52442.41;5116566;28;20201;-80
2023/03/22 03:36:53;;;;;;;2.17;1.53;;;;;;;-145.69;100.00;52476.06;5116774;28;20578;-80
2023/03/22 03:39:22;;;;;;;3.73;1.40;;;;;;;-145.69;100.00;52464.19;5116116;28;20193;-80
2023/03/22 03:41:53;;;;;;;2.97;1.47;;;;;;;-145.69;100.00;52495.88;5116555;28;20201;-80
2023/03/22 03:44:20;;;;;;;4.77;1.57;;;;;;;-145.69;100.00;52487.97;5116348;28;20194;-80
2023/03/22 03:46:48;;;;;;;3.33;1.40;;;;;;;-145.69;100.00;52489.94;5116403;28;20224;-80
2023/03/22 03:49:16;;;;;;;3.20;1.57;;;;;;;-145.69;100.00;52472.13;5116491;28;20204;-80
2023/03/22 03:51:48;;;;;;;2.07;1.37;;;;;;;-145.69;100.00;52446.38;5116165;28;20205;-80
2023/03/22 03:54:14;;;;;;;1.80;1.50;;;;;;;-145.69;100.00;52428.53;5116377;28;20226;-80
2023/03/22 03:56:41;;;;;;;3.87;1.50;;;;;;;-145.69;100.00;52495.88;5116018;28;20205;-80
2023/03/22 03:59:09;;;;;;;2.83;1.60;;;;;;;-145.69;100.00;52444.38;5116416;28;20201;-80
2023/03/22 04:01:38;;;;;;;1.93;1.40;;;;;;;-145.69;100.00;52444.38;5116350;28;20291;-80
2023/03/22 04:04:08;;;;;;;3.07;1.53;;;;;;;-145.69;100.00;52495.88;5116289;28;20220;-80
2023/03/22 04:06:38;;;;;;;2.67;1.73;;;;;;;-145.69;100.00;52464.19;5115469;28;20236;-81
2023/03/22 04:09:09;;;;;;;4.50;1.57;;;;;;;-145.69;100.00;52464.19;5115714;28;20257;-81
2023/03/22 04:11:42;;;;;;;2.23;1.33;;;;;;;-145.69;100.00;52468.16;5116176;28;20197;-80
2023/03/22 04:14:13;;;;;;;3.03;1.20;;;;;;;-145.69;100.00;52499.84;5115249;28;20193;-81
2023/03/22 04:16:39;;;;;;;3.10;1.47;;;;;;;-145.69;100.00;52468.16;5114843;28;20198;-81
2023/03/22 04:19:06;;;;;;;3.90;2.50;;;;;;;-145.69;100.00;52484.00;5115564;28;20239;-81
2023/03/22 04:21:35;;;;;;;3.27;1.57;;;;;;;-145.69;100.00;52472.13;5115937;28;20205;-81
2023/03/22 04:24:03;;;;;;;5.13;1.50;;;;;;;-145.69;100.00;52478.06;5115562;28;20674;-80
2023/03/22 04:26:29;;;;;;;2.50;1.57;;;;;;;-145.69;100.00;52456.28;5115430;28;20225;-81
2023/03/22 04:28:57;;;;;;;4.03;1.40;;;;;;;-145.69;100.00;52484.00;5115520;28;20201;-81
2023/03/22 04:31:25;;;;;;;5.03;1.77;;;;;;;-145.69;100.00;52501.81;5115581;28;20197;-80
2023/03/22 04:33:55;;;;;;;5.17;1.33;;;;;;;-145.69;100.00;52472.13;5115419;28;20629;-80
2023/03/22 04:36:22;;;;;;;2.83;1.40;;;;;;;-145.69;100.00;52497.84;5115433;28;20193;-81
2023/03/22 04:38:49;;;;;;;2.07;1.20;;;;;;;-145.69;100.00;52491.91;5115293;28;20212;-80
2023/03/22 04:41:16;;;;;;;3.70;1.27;;;;;;;-145.69;100.00;52476.06;5115426;28;20197;-81
2023/03/22 04:43:45;;;;;;;2.50;1.73;;;;;;;-145.69;100.00;52491.91;5114875;28;20224;-81
2023/03/22 04:46:13;;;;;;;4.00;1.30;;;;;;;-145.69;100.00;52466.16;5115097;28;20228;-81
2023/03/22 04:48:42;;;;;;;2.50;1.40;;;;;;;-145.69;100.00;52468.16;5115142;28;20201;-80
2023/03/22 04:51:10;;;;;;;1.83;1.23;;;;;;;-145.69;100.00;52456.28;5115258;28;20208;-81
2023/03/22 04:53:38;;;;;;;2.90;1.53;;;;;;;-145.69;100.00;52480.03;5115186;28;20281;-80
2023/03/22 04:56:06;;;;;;;2.23;1.37;;;;;;;-145.69;100.00;52466.16;5115010;28;20286;-80
2023/03/22 04:58:34;;;;;;;2.33;1.27;;;;;;;-145.69;100.00;52491.91;5115181;28;20687;-81
2023/03/22 05:01:01;;;;;;;1.97;1.20;;;;;;;-145.69;100.00;52466.16;5115020;28;20197;-80
2023/03/22 05:03:28;;;;;;;4.07;1.23;;;;;;;-145.69;100.00;52485.97;5115138;28;20201;-81
2023/03/22 05:05:57;;;;;;;1.20;1.10;;;;;;;-145.69;100.00;52470.13;5114538;28;20709;-81
2023/03/22 05:08:27;;;;;;;2.30;1.40;;;;;;;-145.69;100.00;52468.16;5114521;28;20205;-81
2023/03/22 05:10:54;;;;;;;3.23;1.50;;;;;;;-145.69;100.00;52464.19;5114365;28;20205;-81
2023/03/22 05:13:23;;;;;;;6.70;1.23;;;;;;;-145.69;100.00;52468.16;5115003;28;20202;-82
2023/03/22 05:15:50;;;;;;;1.30;1.20;;;;;;;-145.69;100.00;52466.16;5114585;28;20212;-81
2023/03/22 05:18:20;;;;;;;1.70;1.47;;;;;;;-145.69;100.00;52474.09;5114472;28;20238;-81
2023/03/22 05:20:48;;;;;;;1.90;1.07;;;;;;;-145.69;100.00;52480.03;5114494;28;20193;-81
2023/03/22 05:23:18;;;;;;;3.37;1.17;;;;;;;-145.69;100.00;52501.81;5114746;28;20201;-81
2023/03/22 05:25:45;;;;;;;1.33;1.07;;;;;;;-145.69;100.00;52487.97;5114050;28;20225;-80
2023/03/22 05:28:13;;;;;;;5.60;1.40;;;;;;;-145.69;100.00;52495.88;5114544;28;20193;-80
2023/03/22 05:30:40;;;;;;;2.70;1.27;;;;;;;-145.69;100.00;52476.06;5114449;28;20205;-81
2023/03/22 05:33:09;;;;;;;5.03;1.70;;;;;;;-145.69;100.00;52466.16;5114675;28;20205;-81
2023/03/22 05:35:38;;;;;;;1.67;1.00;;;;;;;-145.69;100.00;52468.16;5114531;28;20201;-81
2023/03/22 05:38:05;;;;;;;1.57;1.10;;;;;;;-145.69;100.00;52485.97;5113828;28;20548;-81
2023/03/22 05:40:37;;;;;;;11.63;1.40;;;;;;;-145.69;100.00;52487.97;5114667;28;20205;-81
2023/03/22 05:43:05;;;;;;;5.10;2.53;;;;;;;-145.69;100.00;52513.69;5114234;28;20276;-81
2023/03/22 05:45:32;;;;;;;9.30;1.20;;;;;;;-145.69;100.00;52470.13;5114222;28;20381;-81
2023/03/22 05:47:59;;;;;;;1.57;1.20;;;;;;;-145.69;100.00;52460.22;5114228;28;20204;-82
2023/03/22 05:50:25;;;;;;;3.83;1.10;;;;;;;-145.69;100.00;52440.44;5114377;28;20197;-81
2023/03/22 05:52:52;;;;;;;4.70;1.10;;;;;;;-145.69;100.00;52474.09;5114586;28;20197;-81
2023/03/22 05:55:19;;;;;;;2.83;1.20;;;;;;;-145.69;100.00;52499.84;5113925;28;20200;-81
2023/03/22 05:57:50;;;;;;;2.73;1.50;;;;;;;-145.69;100.00;52464.19;5114043;28;20622;-81
2023/03/22 06:00:18;;;;;;;1.77;1.20;;;;;;;-145.69;100.00;52460.22;5115527;28;20194;-81
2023/03/22 06:02:46;;;;;;;2.33;1.40;;;;;;;-145.69;100.00;52474.09;5115475;28;20663;-82
2023/03/22 06:05:17;;;;;;;3.93;1.40;;;;;;;-145.69;100.00;52460.22;5114850;28;20292;-82
2023/03/22 06:07:44;;;;;;;2.90;1.20;;;;;;;-145.69;100.00;52489.94;5114591;28;20197;-81
2023/03/22 06:10:23;;;;;;;4.65;1.40;;;;;;;-145.69;100.00;52476.06;5113149;28;20474;-80
2023/03/22 06:12:50;;;;;;;4.43;1.40;;;;;;;-145.69;100.00;52448.34;5113766;28;20205;-81
2023/03/22 06:15:20;;;;;;;2.67;1.47;;;;;;;-145.69;100.00;52442.41;5113559;28;20204;-81
2023/03/22 06:17:47;;;;;;;6.57;1.90;;;;;;;-145.69;100.00;52484.00;5109669;28;20198;-80
2023/03/22 06:20:14;;;;;;;2.20;1.33;;;;;;;-145.69;100.00;52468.16;5113875;28;20201;-81
2023/03/22 06:22:43;;;;;;;3.17;1.30;;;;;;;-145.69;100.00;52448.34;5113370;28;20209;-81
2023/03/22 06:25:11;;;;;;;1.83;1.40;;;;;;;-145.69;100.00;52476.06;5113178;28;20193;-81
2023/03/22 06:27:39;;;;;;;2.53;1.33;;;;;;;-145.69;100.00;52470.13;5113526;28;20236;-81
2023/03/22 06:30:15;;;;;;;4.07;1.17;;;;;;;-145.69;100.00;52472.13;5113195;28;20194;-81
2023/03/22 06:32:47;;;;;;;1.77;1.07;;;;;;;-145.69;100.00;52456.28;5113815;28;20200;-80
2023/03/22 06:35:16;;;;;;;3.30;1.10;;;;;;;-145.69;100.00;52444.38;5113080;28;20190;-80
2023/03/22 06:37:42;;;;;;;7.63;1.33;;;;;;;-145.69;100.00;52446.38;5112791;28;20203;-81
2023/03/22 06:40:10;;;;;;;4.13;1.23;;;;;;;-145.69;100.00;52428.53;5113298;28;20204;-81
2023/03/22 06:42:37;;;;;;;3.30;1.20;;;;;;;-145.69;100.00;52438.44;5112510;28;20236;-80
2023/03/22 06:45:13;;;;;;;2.73;1.20;;;;;;;-145.69;100.00;52468.16;5103866;28;20201;-81
2023/03/22 06:47:44;;;;;;;5.00;1.10;;;;;;;-145.69;100.00;52462.22;5112822;28;20315;-80
2023/03/22 06:50:11;;;;;;;4.83;1.00;;;;;;;-145.69;100.00;52487.97;5113364;28;20656;-81
2023/03/22 06:52:42;;;;;;;1.53;1.17;;;;;;;-145.69;100.00;52460.22;5113345;28;20193;-80
2023/03/22 06:55:12;;;;;;;5.57;1.10;;;;;;;-145.69;100.00;52440.44;5112611;28;20197;-80
2023/03/22 06:57:38;;;;;;;5.88;1.30;;;;;;;-145.69;100.00;52487.97;5112405;28;20442;-80
2023/03/22 07:00:08;;;;;;;2.80;1.40;;;;;;;-145.69;100.00;52428.53;5112447;28;20640;-80
2023/03/22 07:02:35;;;;;;;3.33;1.17;;;;;;;-145.69;100.00;52460.22;5113165;28;20217;-80
2023/03/22 07:05:04;;;;;;;2.97;1.23;;;;;;;-145.69;100.00;52458.25;5113068;28;20238;-80
2023/03/22 07:07:30;;;;;;;3.63;1.30;;;;;;;-145.69;100.00;52444.38;5112622;28;20227;-80
2023/03/22 07:09:59;;;;;;;3.10;1.00;;;;;;;-145.69;100.00;52454.28;5112681;28;20201;-80
2023/03/22 07:12:26;;;;;;;3.23;1.20;;;;;;;-145.69;100.00;52418.63;5112793;28;20197;-80
2023/03/22 07:14:52;;;;;;;1.27;1.00;;;;;;;-145.69;100.00;52458.25;5112664;28;20201;-80
2023/03/22 07:17:19;;;;;;;5.40;1.17;;;;;;;-145.69;100.00;52420.63;5112613;28;20196;-80
2023/03/22 07:19:48;;;;;;;1.83;0.90;;;;;;;-145.69;100.00;52452.31;5112719;28;20198;-80
2023/03/22 07:22:16;;;;;;;2.53;0.80;;;;;;;-145.69;100.00;52434.47;5112567;28;20200;-80
2023/03/22 07:24:45;;;;;;;2.60;0.80;;;;;;;-145.69;100.00;52444.38;5113001;28;20201;-80
2023/03/22 07:27:11;;;;;;;3.57;1.20;;;;;;;-145.69;100.00;52454.28;5112868;28;20256;-80
2023/03/22 07:29:41;;;;;;;2.37;0.90;;;;;;;-145.69;100.00;52398.84;5113095;28;20201;-81
2023/03/22 07:32:10;;;;;;;5.37;1.00;;;;;;;-145.69;100.00;52406.75;5112458;28;20208;-82
2023/03/22 07:34:37;;;;;;;6.83;1.20;;;;;;;-145.69;100.00;52394.88;5112862;28;20197;-81
2023/03/22 07:37:04;;;;;;;1.97;0.90;;;;;;;-145.69;100.00;52373.09;5113342;28;20656;-81
2023/03/22 07:39:37;;;;;;;1.33;0.87;;;;;;;-145.69;100.00;52394.88;5113063;28;20247;-81
2023/03/22 07:42:08;;;;;;;0.90;0.70;;;;;;;-145.69;100.00;52353.28;5111920;28;20221;-81
2023/03/22 07:44:34;;;;;;;2.13;1.00;;;;;;;-145.69;100.00;52388.94;5112356;28;20190;-80
2023/03/22 07:47:01;;;;;;;2.63;0.90;;;;;;;-145.69;100.00;52369.13;5112424;28;20232;-81
2023/03/22 07:49:29;;;;;;;2.67;0.70;;;;;;;-145.69;100.00;52369.13;5112674;28;20212;-80
2023/03/22 07:51:55;;;;;;;1.63;0.90;;;;;;;-145.69;100.00;52373.09;5116243;28;20193;-79
2023/03/22 07:54:21;;;;;;;4.10;1.10;;;;;;;-145.69;100.00;52381.00;5116586;28;20202;-81
2023/03/22 07:56:49;;;;;;;1.00;0.70;;;;;;;-145.69;100.00;52381.00;5115198;28;20679;-79
2023/03/22 07:59:17;;;;;;;1.33;0.93;;;;;;;-145.69;100.00;52361.22;5115206;28;20209;-79
2023/03/22 08:01:43;;;;;;;2.63;0.90;;;;;;;-145.69;100.00;52394.88;5115825;28;20193;-78
2023/03/22 08:04:10;;;;;;;1.23;0.90;;;;;;;-145.69;100.00;52383.00;5116177;28;20193;-80
2023/03/22 08:06:36;;;;;;;1.93;0.73;;;;;;;-145.69;100.00;52390.91;5116362;28;20221;-79
2023/03/22 08:09:03;;;;;;;1.43;1.07;;;;;;;-145.69;100.00;52373.09;5116155;28;20250;-79
2023/03/22 08:11:30;;;;;;;1.00;0.90;;;;;;;-145.69;100.00;52341.41;5115678;28;20198;-77
2023/03/22 08:13:58;;;;;;;2.83;0.80;;;;;;;-145.69;100.00;52359.22;5116006;28;20208;-80
2023/03/22 08:16:25;;;;;;;1.23;0.80;;;;;;;-145.69;100.00;52377.06;5115964;28;20201;-80
2023/03/22 08:18:51;;;;;;;1.20;0.73;;;;;;;-145.69;100.00;52365.16;5116052;28;20595;-80
2023/03/22 08:21:18;;;;;;;1.93;0.80;;;;;;;-145.69;99.35;52353.28;5111082;28;20648;-81
2023/03/22 08:23:44;;;;;;;2.95;1.00;;;;;;;-145.69;95.03;52373.09;5115510;28;20201;-80
2023/03/22 08:26:11;;;;;;;2.03;1.00;;;;;;;-145.69;96.84;52375.06;5115366;28;20192;-80
2023/03/22 08:28:37;;;;;;;1.43;0.93;;;;;;;-145.69;95.48;52388.94;5115821;28;20201;-81
2023/03/22 08:31:12;;;;;;;0.77;0.60;;;;;;;-145.69;98.64;52392.91;5115478;28;20189;-80
2023/03/22 08:33:38;;;;;;;1.33;0.83;;;;;;;-145.69;96.80;52373.09;5115996;28;20200;-80
2023/03/22 08:36:06;;;;;;;3.80;0.85;;;;;;;-145.69;98.44;52349.31;5114908;28;20658;-81
2023/03/22 08:38:32;;;;;;;3.53;0.90;;;;;;;-145.69;95.32;52309.72;5115602;28;20201;-80
2023/03/22 08:40:59;;;;;;;1.42;0.75;;;;;;;-145.69;91.99;52327.53;5115329;28;20194;-80
2023/03/22 08:43:25;;;;;;;2.67;0.90;;;;;;;-145.69;89.92;52325.56;5115188;28;20611;-80
2023/03/22 08:45:52;;;;;;;2.00;0.70;;;;;;;-145.69;86.80;52357.25;5115216;28;20196;-82
2023/03/22 08:48:20;;;;;;;3.15;0.82;;;;;;;-145.69;81.94;52347.34;5115318;28;20225;-80
2023/03/22 08:50:46;;;;;;;1.57;1.00;;;;;;;-145.69;85.78;52325.56;5115290;28;20196;-80
2023/03/22 08:53:13;;;;;;;2.13;1.05;;;;;;;-145.69;78.08;52331.50;5115230;28;20205;-80
2023/03/22 08:55:43;;;;;;;1.93;0.77;;;;;;;-145.69;80.49;52307.75;5114825;28;20632;-81
2023/03/22 08:58:11;;;;;;;1.35;0.70;;;;;;;-145.69;82.94;52313.69;5115285;28;20202;-81
2023/03/22 09:00:38;;;;;;;1.85;1.00;;;;;;;-145.69;78.52;52353.28;5114630;28;20193;-81
2023/03/22 09:03:05;;;;;;;1.17;0.90;;;;;;;-145.69;83.22;52331.50;5115059;28;20204;-81
2023/03/22 09:05:33;;;;;;;1.83;0.80;;;;;;;-145.69;79.61;52325.56;5116397;28;20288;-83
2023/03/22 09:08:00;;;;;;;2.70;0.90;;;;;;;-145.69;81.82;52365.16;5116553;28;20591;-84
2023/03/22 09:10:27;;;;;;;0.95;0.82;;;;;;;-145.69;80.71;52339.44;5101966;28;20201;-83
2023/03/22 09:12:54;;;;;;;1.00;0.90;;;;;;;-145.69;79.76;52337.44;5118209;28;20209;-83
2023/03/22 09:15:21;;;;;;;2.80;0.88;;;;;;;-145.69;74.63;52343.38;5116677;28;20211;-83
2023/03/22 09:17:47;;;;;;;1.85;0.90;;;;;;;-145.69;75.37;52323.59;5116916;28;20198;-83
2023/03/22 09:20:16;;;;;;;2.03;0.90;;;;;;;-145.69;62.84;52307.75;5117757;28;20201;-83
2023/03/22 09:22:43;;;;;;;0.95;0.80;;;;;;;-145.69;73.02;52349.31;5117477;28;20705;-84
2023/03/22 09:25:10;;;;;;;4.32;0.95;;;;;;;-145.69;72.17;52301.81;5119124;28;20205;-85
2023/03/22 09:27:37;;;;;;;2.50;0.90;;;;;;;-145.69;66.12;52319.63;5115073;28;20267;-83
2023/03/22 09:30:04;;;;;;;2.25;0.85;;;;;;;-145.69;70.23;52303.78;5115802;28;20197;-83
2023/03/22 09:32:31;;;;;;;1.67;0.82;;;;;;;-145.69;58.64;52293.88;5114937;28;20254;-83
2023/03/22 09:34:57;;;;;;;1.33;0.80;;;;;;;-145.69;64.16;52325.56;5115023;28;20651;-84
2023/03/22 09:37:29;;;;;;;0.77;0.77;;;;;;;-145.69;65.43;52329.53;5114846;28;20208;-84
2023/03/22 09:39:57;;;;;;;3.70;1.20;;;;;;;-145.69;55.51;52297.84;5115638;28;20289;-84
2023/03/22 09:42:31;;;;;;;2.00;1.00;;;;;;;-145.69;57.32;52309.72;5116720;28;20233;-85
2023/03/22 09:45:02;;;;;;;2.35;0.98;;;;;;;-145.69;65.11;52317.66;5117660;28;20548;-84
2023/03/22 09:47:33;;;;;;;0.98;0.63;;;;;;;-145.69;56.95;52291.91;5116807;28;20221;-84
2023/03/22 09:50:06;;;;;;;0.80;0.73;;;;;;;-145.69;55.46;52303.78;5114835;28;20204;-86
2023/03/22 09:52:33;;;;;;;1.88;0.70;;;;;;;-145.69;54.22;52311.69;5116714;28;20209;-84
2023/03/22 09:55:01;;;;;;;0.90;0.70;;;;;;;-145.69;53.07;52289.91;5115576;28;20261;-82
2023/03/22 09:57:32;;;;;;;1.15;0.70;;;;;;;-145.69;51.55;52289.91;5113878;28;20679;-81
2023/03/22 10:00:13;;;;;;;1.50;0.60;;;;;;;-145.69;52.52;52270.13;5114233;28;20294;-82
2023/03/22 10:02:49;;;;;;;1.30;0.70;;;;;;;-145.69;49.13;52297.84;5113803;28;20201;-81
2023/03/22 10:05:23;;;;;;;1.17;0.60;;;;;;;-145.69;48.62;52309.72;5114017;28;20197;-81
2023/03/22 10:08:06;;;;;;;2.03;0.80;;;;;;;-145.69;47.71;52297.84;5113854;28;20224;-81
2023/03/22 10:10:34;;;;;;;1.35;0.80;;;;;;;-145.69;47.65;52282.00;5113462;28;20655;-80
2023/03/22 10:13:06;;;;;;;1.25;0.70;;;;;;;-145.69;48.08;52266.16;5113337;28;20202;-82
2023/03/22 10:15:37;;;;;;;0.77;0.70;;;;;;;-145.69;49.48;52287.94;5114007;28;20200;-81
2023/03/22 10:18:07;;;;;;;2.08;0.60;;;;;;;-145.69;45.06;52258.22;5113335;28;20198;-80
2023/03/22 10:20:41;;;;;;;0.63;0.60;;;;;;;-145.69;46.83;52266.16;5113955;28;20208;-82
2023/03/22 10:23:13;;;;;;;2.53;0.82;;;;;;;-145.69;46.37;52272.09;5113433;28;20193;-81
2023/03/22 10:25:43;;;;;;;0.82;0.73;;;;;;;-145.69;45.74;52254.28;5112215;28;20217;-81
2023/03/22 10:28:16;;;;;;;2.22;0.70;;;;;;;-145.69;46.16;52287.94;5109092;28;20252;-81
2023/03/22 10:30:49;;;;;;;2.65;0.75;;;;;;;-145.69;45.33;52283.97;5113775;28;20200;-81
2023/03/22 10:33:23;;;;;;;1.20;0.68;;;;;;;-145.69;46.89;52285.97;5114208;27;20193;-81
2023/03/22 10:35:52;;;;;;;0.90;0.80;;;;;;;-145.69;46.10;52297.84;5110211;28;20197;-81
2023/03/22 10:38:23;;;;;;;1.75;0.80;;;;;;;-145.69;48.00;52297.84;5108552;28;20189;-81
2023/03/22 10:40:55;;;;;;;0.60;0.60;;;;;;;-145.69;46.66;52272.09;5113682;28;20201;-81
2023/03/22 10:43:25;;;;;;;2.95;0.90;;;;;;;-145.69;45.86;52297.84;5113035;28;20625;-81
2023/03/22 10:45:54;;;;;;;1.42;0.73;;;;;;;-145.69;48.19;52274.06;5103089;28;20197;-81
2023/03/22 10:48:27;;;;;;;0.57;0.50;;;;;;;-145.69;46.21;52285.97;5113146;28;20225;-80
2023/03/22 10:50:55;;;;;;;3.35;0.80;;;;;;;-145.69;48.54;52262.19;5113817;28;20201;-81
2023/03/22 10:53:30;;;;;;;0.98;0.80;;;;;;;-145.69;46.97;52218.63;5113727;28;20201;-81
2023/03/22 10:55:58;;;;;;;0.70;0.70;;;;;;;-145.69;47.84;52287.94;5113537;28;20197;-81
2023/03/22 10:58:30;;;;;;;2.85;0.90;;;;;;;-145.69;46.70;52266.16;5112897;28;20208;-81
2023/03/22 11:00:59;;;;;;;0.95;0.70;;;;;;;-145.69;46.21;52293.88;5113206;28;20193;-81
2023/03/22 11:03:29;;;;;;;1.85;0.82;;;;;;;-145.69;49.17;52268.13;5113453;28;20232;-82
2023/03/22 11:06:05;;;;;;;2.40;1.00;;;;;;;-145.69;46.00;52242.38;5113897;28;20193;-82
2023/03/22 11:08:43;;;;;;;1.88;0.90;;;;;;;-145.69;44.42;52250.31;5113031;28;20224;-80
2023/03/22 11:11:19;;;;;;;1.00;0.68;;;;;;;-145.69;46.65;52274.06;5113491;28;20193;-82
2023/03/22 11:13:51;;;;;;;1.60;0.77;;;;;;;-145.69;44.63;52258.22;5113436;28;20204;-82
2023/03/22 11:16:18;;;;;;;1.13;0.80;;;;;;;-145.69;44.40;52254.28;5113266;28;20201;-82
2023/03/22 11:18:45;;;;;;;2.60;1.00;;;;;;;-145.69;43.99;52234.47;5113823;28;20330;-82
2023/03/22 11:21:15;;;;;;;1.95;0.80;;;;;;;-145.69;42.23;52256.25;5113720;28;20768;-82